Terminal Aerodrome Forecast
Issued by NWS

Home | Current Version | Previous Version | Text Only | Print | Product List | Glossary Off
Versions: 1 2 3 4 5 6 7 8 9 10 11 12 13 14 15 16

000
FTUS43 KIWX 212336
TAFSBN
TAF
KSBN 212336Z 2200/2224 VRB03KT P6SM VCSH BKN100 BKN250
     FM220400 15004KT P6SM VCTS BKN090CB
      TEMPO 2205/2207 27035G50KT 2SM TSRA BR BKN040CB
     FM220800 17006KT 4SM -TSRA BR BKN025CB
     FM221000 18006KT P6SM BKN025
     FM221400 20010KT P6SM BKN040=

USA.gov is the U.S. government's official web portal to all federal, state and local government web resources and services.